Time;durP1;ratioP1;P1;durP2;ratioP2;P2;SDS_P1;SDS_P2;PMS_P1;PMS_P2;Temp;Humidity;BMP_temperature;BMP_pressure;BME280_temperature;BME280_humidity;BME280_pressure;Samples;Min_cycle;Max_cycle;Signal;HPM_P1;HPM_P2
2024/03/24 00:01:10;;;;;;;11.27;3.55;;;;;;;1.04;100.00;99504.56;5031732;28;20908;-90
2024/03/24 00:03:39;;;;;;;10.30;3.13;;;;;;;1.24;100.00;99531.66;5024254;28;20925;-90
2024/03/24 00:06:05;;;;;;;11.18;3.20;;;;;;;1.29;100.00;99528.28;5016839;28;20409;-91
2024/03/24 00:08:33;;;;;;;10.60;3.17;;;;;;;1.14;100.00;99510.09;5010459;28;20426;-90
2024/03/24 00:11:00;;;;;;;9.38;3.38;;;;;;;1.15;100.00;99533.16;5019322;28;20399;-89
2024/03/24 00:13:27;;;;;;;11.13;3.10;;;;;;;1.25;100.00;99527.13;5032559;28;20887;-90
2024/03/24 00:15:55;;;;;;;10.82;3.25;;;;;;;1.27;100.00;99539.25;5034355;28;20886;-91
2024/03/24 00:18:24;;;;;;;9.55;3.40;;;;;;;1.08;100.00;99503.03;5011379;28;20430;-91
2024/03/24 00:20:50;;;;;;;10.57;3.17;;;;;;;0.95;100.00;99496.16;5030587;28;20427;-90
2024/03/24 00:23:18;;;;;;;10.98;3.38;;;;;;;1.07;100.00;99502.22;5035470;28;20407;-90
2024/03/24 00:25:44;;;;;;;9.30;3.50;;;;;;;1.16;100.00;99529.41;5013808;28;20434;-90
2024/03/24 00:28:12;;;;;;;8.43;3.25;;;;;;;1.05;100.00;99516.91;5024952;28;20429;-91
2024/03/24 00:30:39;;;;;;;11.25;3.25;;;;;;;0.92;100.00;99500.13;5016739;28;20401;-89
2024/03/24 00:33:06;;;;;;;9.68;3.50;;;;;;;1.11;100.00;99507.91;5015202;28;20410;-90
2024/03/24 00:35:36;;;;;;;8.15;3.55;;;;;;;0.84;100.00;99479.94;5020021;28;20405;-91
2024/03/24 00:38:04;;;;;;;10.57;3.65;;;;;;;0.98;100.00;99488.44;5012554;28;20427;-91
2024/03/24 00:40:31;;;;;;;10.45;3.38;;;;;;;1.07;100.00;99510.25;5010301;28;20422;-90
2024/03/24 00:42:59;;;;;;;10.25;3.10;;;;;;;0.98;100.00;99492.97;5011592;28;20422;-91
2024/03/24 00:45:26;;;;;;;8.77;3.50;;;;;;;1.05;100.00;99493.63;5008591;28;20426;-90
2024/03/24 00:47:55;;;;;;;8.70;3.15;;;;;;;1.08;100.00;99484.28;5010200;28;20411;-90
2024/03/24 00:50:21;;;;;;;7.27;3.00;;;;;;;1.06;100.00;99484.53;5016820;28;20426;-90
2024/03/24 00:52:50;;;;;;;9.43;3.23;;;;;;;1.00;100.00;99474.81;5027904;28;20412;-91
2024/03/24 00:55:17;;;;;;;9.70;3.55;;;;;;;1.02;100.00;99480.72;5020026;28;20432;-91
2024/03/24 00:57:44;;;;;;;11.18;3.45;;;;;;;1.07;100.00;99458.56;5002736;28;20446;-90
2024/03/24 01:00:12;;;;;;;9.20;3.23;;;;;;;1.16;100.00;99471.28;5014425;28;20415;-88
2024/03/24 01:02:40;;;;;;;10.02;3.55;;;;;;;1.13;100.00;99469.09;5004446;28;20434;-89
2024/03/24 01:05:07;;;;;;;7.93;3.27;;;;;;;1.15;100.00;99468.84;5010949;28;20421;-88
2024/03/24 01:07:35;;;;;;;9.68;3.60;;;;;;;1.11;100.00;99463.16;5026930;28;20421;-87
2024/03/24 01:10:03;;;;;;;9.98;3.40;;;;;;;1.10;100.00;99448.13;5016545;28;20419;-88
2024/03/24 01:12:31;;;;;;;8.73;3.38;;;;;;;1.00;100.00;99430.06;5027801;28;20784;-87
2024/03/24 01:14:58;;;;;;;9.30;3.30;;;;;;;1.04;100.00;99440.28;5016601;28;20429;-87
2024/03/24 01:17:25;;;;;;;10.02;3.80;;;;;;;1.06;100.00;99430.13;5015904;28;20425;-88
2024/03/24 01:19:52;;;;;;;10.52;3.45;;;;;;;1.05;100.00;99425.81;5011488;28;20419;-89
2024/03/24 01:22:20;;;;;;;9.20;3.63;;;;;;;0.99;100.00;99425.75;5035506;28;20420;-88
2024/03/24 01:24:46;;;;;;;8.20;3.80;;;;;;;0.97;100.00;99403.78;5011889;28;20911;-88
2024/03/24 01:27:17;;;;;;;10.50;3.58;;;;;;;0.92;100.00;99408.25;5026583;28;20422;-89
2024/03/24 01:29:43;;;;;;;10.13;3.63;;;;;;;1.12;100.00;99438.00;4999466;28;20426;-88
2024/03/24 01:32:11;;;;;;;9.63;3.40;;;;;;;1.09;100.00;99422.44;5024613;28;20782;-88
2024/03/24 01:34:38;;;;;;;11.95;4.13;;;;;;;1.06;100.00;99422.09;5017474;28;20798;-88
2024/03/24 01:37:05;;;;;;;10.73;4.25;;;;;;;1.16;100.00;99417.69;5009188;28;20442;-88
2024/03/24 01:39:32;;;;;;;10.38;3.95;;;;;;;1.16;100.00;99404.28;5019877;28;20778;-88
2024/03/24 01:42:00;;;;;;;11.00;4.20;;;;;;;1.26;100.00;99408.97;5000584;28;20426;-88
2024/03/24 01:44:30;;;;;;;8.50;4.30;;;;;;;1.26;100.00;99387.53;5022171;28;20423;-90
2024/03/24 01:46:57;;;;;;;11.70;4.07;;;;;;;1.39;100.00;99413.13;5028379;28;20420;-87
2024/03/24 01:49:24;;;;;;;9.93;4.35;;;;;;;1.49;100.00;99405.22;5024592;28;20426;-90
2024/03/24 01:51:52;;;;;;;11.02;4.40;;;;;;;1.50;100.00;99397.97;5023700;28;20439;-88
2024/03/24 01:54:18;;;;;;;9.07;4.60;;;;;;;1.58;100.00;99394.84;5029854;28;20436;-89
2024/03/24 01:56:46;;;;;;;10.35;4.53;;;;;;;1.49;100.00;99373.03;5026591;28;20423;-88
2024/03/24 01:59:13;;;;;;;10.80;4.63;;;;;;;1.50;100.00;99380.00;5015452;28;20788;-88
2024/03/24 02:01:43;;;;;;;8.40;3.90;;;;;;;1.54;100.00;99366.91;5015196;28;20413;-87
2024/03/24 02:04:09;;;;;;;9.98;4.65;;;;;;;1.67;100.00;99387.16;5009474;28;20421;-88
2024/03/24 02:06:37;;;;;;;11.80;5.07;;;;;;;1.61;100.00;99383.59;5012013;28;20415;-87
2024/03/24 02:09:04;;;;;;;9.80;4.75;;;;;;;1.62;100.00;99389.78;5016794;28;20417;-87
2024/03/24 02:11:31;;;;;;;11.82;5.00;;;;;;;1.56;100.00;99372.03;5011176;28;20413;-88
2024/03/24 02:13:59;;;;;;;9.80;4.65;;;;;;;1.50;100.00;99349.72;5019733;28;20409;-87
2024/03/24 02:16:27;;;;;;;11.70;5.32;;;;;;;1.58;100.00;99356.50;5013426;28;20418;-89
2024/03/24 02:18:55;;;;;;;10.65;5.00;;;;;;;1.44;100.00;99340.00;5016267;28;21164;-91
2024/03/24 02:21:23;;;;;;;12.00;5.30;;;;;;;1.61;100.00;99361.34;5018321;28;20417;-89
2024/03/24 02:23:51;;;;;;;12.75;5.28;;;;;;;1.57;100.00;99336.91;5024802;28;20428;-84
2024/03/24 02:26:18;;;;;;;12.05;5.00;;;;;;;1.57;100.00;99346.84;5029674;28;20757;-89
2024/03/24 02:28:45;;;;;;;10.50;4.90;;;;;;;1.56;100.00;99347.88;5021003;28;20423;-88
2024/03/24 02:31:13;;;;;;;11.20;5.05;;;;;;;1.33;100.00;99321.13;5022181;28;20494;-87
2024/03/24 02:33:39;;;;;;;14.45;5.65;;;;;;;1.55;100.00;99335.53;5014637;28;20427;-88
2024/03/24 02:36:08;;;;;;;12.52;5.32;;;;;;;1.33;100.00;99309.59;5012829;28;20813;-88
2024/03/24 02:38:34;;;;;;;11.77;5.57;;;;;;;1.56;100.00;99321.06;5007057;28;20945;-89
2024/03/24 02:41:04;;;;;;;12.75;5.40;;;;;;;1.50;100.00;99320.22;5031222;28;20415;-89
2024/03/24 02:43:33;;;;;;;11.65;5.20;;;;;;;1.66;100.00;99323.88;5033395;28;20935;-87
2024/03/24 02:46:01;;;;;;;11.82;5.70;;;;;;;1.42;100.00;99296.53;5028770;28;20430;-87
2024/03/24 02:48:28;;;;;;;14.63;5.45;;;;;;;1.68;100.00;99330.56;5007642;28;20417;-87
2024/03/24 02:50:58;;;;;;;12.02;5.40;;;;;;;1.57;100.00;99299.38;5017397;28;20441;-87
2024/03/24 02:53:25;;;;;;;14.20;5.45;;;;;;;1.70;100.00;99320.41;5015407;28;20414;-87
2024/03/24 02:55:53;;;;;;;14.50;5.93;;;;;;;1.75;100.00;99318.84;5034796;28;20424;-87
2024/03/24 02:58:21;;;;;;;12.32;5.30;;;;;;;1.65;100.00;99304.25;5028090;28;20427;-87
2024/03/24 03:00:49;;;;;;;10.13;5.57;;;;;;;1.73;100.00;99300.31;5017225;28;20417;-88
2024/03/24 03:03:17;;;;;;;12.88;5.97;;;;;;;1.86;100.00;99301.75;5032716;28;20946;-88
2024/03/24 03:05:46;;;;;;;12.80;5.57;;;;;;;1.86;100.00;99288.34;5014880;28;20411;-88
2024/03/24 03:08:12;;;;;;;10.30;5.55;;;;;;;1.91;100.00;99291.06;5012629;28;20413;-87
2024/03/24 03:10:40;;;;;;;12.85;5.80;;;;;;;1.93;100.00;99288.13;5014072;28;20792;-88
2024/03/24 03:13:07;;;;;;;12.82;5.90;;;;;;;2.06;100.00;99295.75;5011574;28;20435;-87
2024/03/24 03:15:37;;;;;;;12.80;5.95;;;;;;;2.09;100.00;99287.19;5010691;28;20789;-88
2024/03/24 03:18:06;;;;;;;10.80;5.68;;;;;;;2.03;100.00;99270.25;5007005;28;20429;-88
2024/03/24 03:20:33;;;;;;;13.50;6.00;;;;;;;2.22;100.00;99275.19;5023875;28;20420;-86
2024/03/24 03:23:00;;;;;;;12.93;5.78;;;;;;;2.03;100.00;99256.00;5030002;28;20428;-87
2024/03/24 03:25:28;;;;;;;13.30;5.90;;;;;;;2.16;100.00;99262.81;5019690;28;20460;-87
2024/03/24 03:27:55;;;;;;;14.57;6.00;;;;;;;2.11;100.00;99252.03;5027916;28;20811;-87
2024/03/24 03:30:22;;;;;;;11.35;5.93;;;;;;;2.15;100.00;99243.19;5022654;28;20432;-88
2024/03/24 03:32:51;;;;;;;13.35;6.10;;;;;;;2.14;100.00;99238.91;5003655;28;20421;-88
2024/03/24 03:35:19;;;;;;;14.88;6.57;;;;;;;2.09;100.00;99244.25;5020637;28;20463;-88
2024/03/24 03:37:45;;;;;;;13.80;5.72;;;;;;;1.91;100.00;99217.84;5012884;28;20741;-87
2024/03/24 03:40:14;;;;;;;14.43;6.10;;;;;;;2.18;100.00;99233.81;5038537;28;20411;-87
2024/03/24 03:42:41;;;;;;;11.00;5.88;;;;;;;2.18;100.00;99231.13;5016793;28;20421;-87
2024/03/24 03:45:10;;;;;;;13.27;6.25;;;;;;;2.15;100.00;99227.09;5019555;28;20430;-88
2024/03/24 03:47:38;;;;;;;13.90;6.65;;;;;;;2.00;100.00;99218.94;5009090;28;20927;-87
2024/03/24 03:50:13;;;;;;;14.35;7.00;;;;;;;2.07;100.00;99232.16;5015039;28;20425;-87
2024/03/24 03:52:39;;;;;;;14.63;6.55;;;;;;;1.95;100.00;99208.22;5007635;28;20646;-88
2024/03/24 03:55:11;;;;;;;13.13;6.70;;;;;;;1.82;100.00;99191.50;5021675;28;20932;-89
2024/03/24 03:57:38;;;;;;;13.57;6.90;;;;;;;2.07;100.00;99218.72;5004208;28;21176;-90
2024/03/24 04:00:10;;;;;;;16.58;7.13;;;;;;;2.08;100.00;99214.97;5012240;28;20799;-88
2024/03/24 04:02:38;;;;;;;11.63;7.00;;;;;;;1.98;100.00;99208.47;5035511;28;20929;-87
2024/03/24 04:05:09;;;;;;;14.67;6.90;;;;;;;2.09;100.00;99211.25;5018950;28;20423;-88
2024/03/24 04:07:36;;;;;;;14.55;7.55;;;;;;;2.00;100.00;99205.53;5004057;28;20423;-88
2024/03/24 04:10:05;;;;;;;14.45;7.05;;;;;;;2.01;100.00;99207.97;5006704;28;20399;-87
2024/03/24 04:12:32;;;;;;;13.65;7.00;;;;;;;1.93;100.00;99168.19;5014575;28;20421;-91
2024/03/24 04:15:00;;;;;;;15.37;8.20;;;;;;;2.11;100.00;99193.78;5013690;28;20425;-88
2024/03/24 04:17:28;;;;;;;16.17;8.23;;;;;;;2.16;100.00;99193.81;5013141;28;20442;-90
2024/03/24 04:19:56;;;;;;;16.73;8.75;;;;;;;2.04;100.00;99186.00;5028110;28;20446;-88
2024/03/24 04:22:24;;;;;;;18.00;9.18;;;;;;;2.26;100.00;99197.63;5015480;28;20415;-88
2024/03/24 04:24:51;;;;;;;18.95;10.00;;;;;;;2.25;100.00;99185.28;5026777;28;20476;-87
2024/03/24 04:27:18;;;;;;;18.52;9.52;;;;;;;2.26;100.00;99193.06;5012465;28;20412;-89
2024/03/24 04:29:45;;;;;;;19.50;10.40;;;;;;;2.19;100.00;99173.72;5032714;28;20425;-90
2024/03/24 04:32:12;;;;;;;16.80;9.68;;;;;;;2.37;100.00;99175.91;5030485;28;20427;-89
2024/03/24 04:34:40;;;;;;;17.27;9.73;;;;;;;2.38;100.00;99166.81;5013270;28;20426;-87
2024/03/24 04:37:06;;;;;;;16.92;10.05;;;;;;;2.43;100.00;99178.63;5027918;28;20417;-88
2024/03/24 04:39:36;;;;;;;17.92;10.52;;;;;;;2.40;100.00;99181.84;5006983;28;20431;-88
2024/03/24 04:42:04;;;;;;;20.38;10.95;;;;;;;2.43;100.00;99163.34;5021993;28;20415;-87
2024/03/24 04:44:32;;;;;;;18.70;10.25;;;;;;;2.37;100.00;99145.59;5026394;28;21065;-89
2024/03/24 04:46:58;;;;;;;18.25;10.65;;;;;;;2.40;100.00;99161.16;5028388;28;20960;-89
2024/03/24 04:49:26;;;;;;;19.08;11.57;;;;;;;2.41;100.00;99156.63;5016437;28;20423;-88
2024/03/24 04:51:53;;;;;;;19.65;11.32;;;;;;;2.46;100.00;99146.72;5023848;28;20892;-89
2024/03/24 04:54:20;;;;;;;20.13;11.75;;;;;;;2.40;100.00;99142.38;5020886;28;20893;-90
2024/03/24 04:56:50;;;;;;;22.25;11.90;;;;;;;2.40;100.00;99146.94;5014945;28;20939;-89
2024/03/24 04:59:17;;;;;;;18.13;11.15;;;;;;;2.49;100.00;99138.13;5011606;28;20929;-87
2024/03/24 05:01:44;;;;;;;20.58;11.77;;;;;;;2.50;100.00;99149.66;5016608;28;20421;-88
2024/03/24 05:04:12;;;;;;;24.10;12.32;;;;;;;2.50;100.00;99149.66;5011981;28;20415;-88
2024/03/24 05:06:38;;;;;;;21.30;12.25;;;;;;;2.42;100.00;99131.38;5015309;28;20449;-88
2024/03/24 05:09:08;;;;;;;19.88;12.13;;;;;;;2.51;100.00;99144.03;5009417;28;20423;-88
2024/03/24 05:11:35;;;;;;;20.90;12.00;;;;;;;2.50;100.00;99155.03;5009945;28;20443;-89
2024/03/24 05:14:04;;;;;;;19.92;12.48;;;;;;;2.51;100.00;99137.84;5014440;28;20408;-89
2024/03/24 05:16:31;;;;;;;20.80;12.63;;;;;;;2.51;100.00;99145.91;5012840;28;20420;-90
2024/03/24 05:19:03;;;;;;;22.40;12.95;;;;;;;2.62;100.00;99162.84;5027880;28;20434;-88
2024/03/24 05:21:29;;;;;;;19.92;12.25;;;;;;;2.78;100.00;99147.59;5022167;28;20435;-87
2024/03/24 05:23:57;;;;;;;22.00;12.65;;;;;;;2.65;100.00;99141.66;5016214;28;20421;-89
2024/03/24 05:26:24;;;;;;;21.77;12.63;;;;;;;2.49;100.00;99130.06;5013997;28;20422;-87
2024/03/24 05:28:53;;;;;;;20.58;12.95;;;;;;;2.76;100.00;99157.78;5032410;28;20432;-89
2024/03/24 05:31:21;;;;;;;22.60;13.43;;;;;;;2.79;100.00;99146.50;5036958;28;20421;-89
2024/03/24 05:33:49;;;;;;;22.23;13.18;;;;;;;2.77;100.00;99124.50;5014282;28;20408;-88
2024/03/24 05:36:16;;;;;;;23.35;14.45;;;;;;;2.89;100.00;99127.72;5012597;28;20790;-88
2024/03/24 05:38:44;;;;;;;22.85;13.88;;;;;;;2.86;100.00;99144.38;5022442;28;20434;-87
2024/03/24 05:41:11;;;;;;;22.50;13.05;;;;;;;2.85;100.00;99140.09;5010475;28;20425;-89
2024/03/24 05:43:39;;;;;;;25.60;14.35;;;;;;;2.98;100.00;99141.44;5011563;28;20422;-89
2024/03/24 05:46:07;;;;;;;23.90;14.25;;;;;;;2.82;100.00;99125.28;5014693;28;20426;-87
2024/03/24 05:48:36;;;;;;;21.20;14.18;;;;;;;2.94;100.00;99143.03;5029563;28;20419;-89
2024/03/24 05:51:06;;;;;;;21.63;14.60;;;;;;;2.96;100.00;99133.63;5013666;28;20490;-89
2024/03/24 05:53:33;;;;;;;24.70;14.25;;;;;;;3.04;100.00;99133.13;5018070;28;20906;-88
2024/03/24 05:56:01;;;;;;;20.83;14.02;;;;;;;3.01;100.00;99132.81;5013318;28;20423;-87
2024/03/24 05:58:29;;;;;;;23.52;14.75;;;;;;;3.11;100.00;99132.03;5014937;28;20423;-89
2024/03/24 06:00:57;;;;;;;24.23;14.63;;;;;;;3.06;100.00;99122.09;5016498;28;20435;-87
2024/03/24 06:03:24;;;;;;;23.83;14.10;;;;;;;3.25;100.00;99126.94;5027784;28;20419;-89
2024/03/24 06:05:53;;;;;;;23.92;14.38;;;;;;;3.10;100.00;99125.84;5016597;28;20430;-88
2024/03/24 06:08:20;;;;;;;23.57;15.00;;;;;;;3.07;100.00;99123.72;5019593;28;20913;-89
2024/03/24 06:10:48;;;;;;;20.63;13.95;;;;;;;3.23;100.00;99129.88;5019296;28;20428;-87
2024/03/24 06:13:14;;;;;;;22.08;13.75;;;;;;;3.09;100.00;99121.53;5013597;28;20429;-88
2024/03/24 06:15:43;;;;;;;21.15;13.35;;;;;;;3.24;100.00;99126.13;5015963;28;20411;-89
2024/03/24 06:18:11;;;;;;;21.90;13.30;;;;;;;3.10;100.00;99119.69;5020361;28;20422;-87
2024/03/24 06:20:39;;;;;;;23.88;14.20;;;;;;;3.31;100.00;99121.28;5009167;28;20441;-88
2024/03/24 06:23:07;;;;;;;19.17;13.27;;;;;;;3.29;100.00;99109.19;5017681;28;20484;-88
2024/03/24 06:25:35;;;;;;;21.70;13.27;;;;;;;3.31;100.00;99113.19;5017955;28;20421;-89
2024/03/24 06:28:03;;;;;;;21.23;13.88;;;;;;;3.17;100.00;99101.41;5028385;28;20423;-89
2024/03/24 06:30:31;;;;;;;17.88;12.35;;;;;;;3.40;100.00;99110.78;5016722;28;20436;-90
2024/03/24 06:32:57;;;;;;;21.08;13.00;;;;;;;3.25;100.00;99105.44;5034846;28;20413;-90
2024/03/24 06:35:25;;;;;;;19.95;13.35;;;;;;;3.23;100.00;99109.19;5013138;28;20409;-90
2024/03/24 06:37:51;;;;;;;19.52;13.70;;;;;;;3.42;100.00;99121.28;5038733;28;20442;-91
2024/03/24 06:40:21;;;;;;;22.87;13.67;;;;;;;3.37;100.00;99111.31;5034454;28;20425;-90
2024/03/24 06:42:59;;;;;;;22.67;13.77;;;;;;;3.28;100.00;99108.38;5007587;28;20419;-90
2024/03/24 06:45:29;;;;;;;19.33;13.55;;;;;;;3.28;100.00;99110.28;5014630;28;20428;-90
2024/03/24 06:47:56;;;;;;;21.33;13.70;;;;;;;3.31;100.00;99098.97;5010597;28;20774;-90
2024/03/24 06:50:24;;;;;;;20.83;14.02;;;;;;;3.26;100.00;99109.72;5017398;28;20420;-91
2024/03/24 06:52:52;;;;;;;21.13;14.20;;;;;;;3.21;100.00;99097.09;5014289;28;20798;-89
2024/03/24 06:55:21;;;;;;;19.37;13.33;;;;;;;3.22;100.00;99107.56;5006664;28;20427;-89
2024/03/24 06:57:48;;;;;;;22.58;13.65;;;;;;;3.32;100.00;99109.44;5013597;28;20426;-88
2024/03/24 07:00:16;;;;;;;19.65;13.07;;;;;;;3.27;100.00;99103.28;5029295;28;20427;-88
2024/03/24 07:02:43;;;;;;;21.60;13.20;;;;;;;3.35;100.00;99108.09;5022722;28;20422;-87
2024/03/24 07:05:10;;;;;;;21.38;12.82;;;;;;;3.33;100.00;99110.25;5031211;28;20431;-88
2024/03/24 07:07:37;;;;;;;18.98;12.60;;;;;;;3.40;100.00;99113.47;5011581;28;20419;-90
2024/03/24 07:10:07;;;;;;;18.98;12.65;;;;;;;3.31;100.00;99104.34;5016671;28;20433;-90
2024/03/24 07:12:35;;;;;;;19.30;12.87;;;;;;;3.27;100.00;99097.88;5009646;28;20901;-90
2024/03/24 07:15:03;;;;;;;18.50;12.52;;;;;;;3.44;100.00;99111.88;5035578;28;20418;-90
2024/03/24 07:17:30;;;;;;;19.52;11.93;;;;;;;3.38;100.00;99102.19;5030092;28;20445;-89
2024/03/24 07:19:57;;;;;;;17.23;11.75;;;;;;;3.33;100.00;99086.88;5015364;28;20426;-90
2024/03/24 07:22:24;;;;;;;16.67;11.40;;;;;;;3.51;100.00;99108.91;5016403;28;21005;-90
2024/03/24 07:24:52;;;;;;;15.88;11.20;;;;;;;3.46;100.00;99090.06;5017554;28;20414;-90
2024/03/24 07:27:18;;;;;;;17.80;10.70;;;;;;;3.54;100.00;99092.22;5011216;28;20419;-90
2024/03/24 07:29:47;;;;;;;15.27;10.23;;;;;;;3.68;100.00;99108.59;5012674;28;20443;-90
2024/03/24 07:32:14;;;;;;;14.15;8.98;;;;;;;3.61;100.00;99073.91;5028662;28;20811;-90
2024/03/24 07:34:44;;;;;;;15.15;9.32;;;;;;;3.63;100.00;99087.88;5027052;28;20430;-89
2024/03/24 07:37:10;;;;;;;12.63;8.68;;;;;;;3.82;100.00;99104.22;5033953;28;20412;-90
2024/03/24 07:39:41;;;;;;;12.55;8.68;;;;;;;3.64;100.00;99089.47;5016961;28;20951;-88
2024/03/24 07:42:11;;;;;;;13.00;8.65;;;;;;;3.59;100.00;99089.53;5015712;28;20417;-90
2024/03/24 07:44:40;;;;;;;13.65;8.30;;;;;;;3.64;100.00;99102.94;5002857;28;20767;-90
2024/03/24 07:47:09;;;;;;;12.35;7.72;;;;;;;3.68;100.00;99081.69;5016892;28;20907;-90
2024/03/24 07:49:37;;;;;;;11.75;7.00;;;;;;;3.80;100.00;99095.66;5031894;28;20409;-90
2024/03/24 07:52:04;;;;;;;11.20;6.90;;;;;;;3.66;100.00;99097.28;5012213;28;20442;-90
2024/03/24 07:54:32;;;;;;;10.65;7.30;;;;;;;3.65;100.00;99106.44;5026006;28;20797;-90
2024/03/24 07:57:04;;;;;;;10.75;6.68;;;;;;;3.70;100.00;99098.34;4993853;28;20423;-90
2024/03/24 07:59:34;;;;;;;10.43;6.13;;;;;;;3.55;100.00;99078.50;5012745;28;20505;-89
2024/03/24 08:02:01;;;;;;;10.27;5.97;;;;;;;3.72;100.00;99117.72;5015184;28;20423;-89
2024/03/24 08:04:30;;;;;;;8.95;5.93;;;;;;;3.72;100.00;99102.38;5012382;28;20427;-90
2024/03/24 08:06:57;;;;;;;8.70;5.85;;;;;;;3.74;100.00;99092.16;5010725;28;20893;-90
2024/03/24 08:09:24;;;;;;;9.40;5.40;;;;;;;3.77;100.00;99092.69;5011287;28;20448;-90
2024/03/24 08:11:51;;;;;;;8.77;5.30;;;;;;;3.95;100.00;99112.81;5014276;28;20450;-90
2024/03/24 08:14:19;;;;;;;8.60;5.45;;;;;;;3.98;100.00;99107.69;5000133;28;20419;-91
2024/03/24 08:16:46;;;;;;;7.90;5.10;;;;;;;3.92;100.00;99109.59;5001572;28;20416;-90
2024/03/24 08:19:14;;;;;;;8.20;4.57;;;;;;;3.95;100.00;99099.34;5016350;28;21000;-91
2024/03/24 08:21:43;;;;;;;8.13;4.70;;;;;;;3.96;100.00;99117.13;5030829;28;20417;-91
2024/03/24 08:24:12;;;;;;;8.40;5.22;;;;;;;4.04;100.00;99103.09;5015819;28;20492;-88
2024/03/24 08:26:39;;;;;;;9.23;5.03;;;;;;;4.13;100.00;99093.38;5014364;28;20778;-90
2024/03/24 08:29:07;;;;;;;8.50;5.10;;;;;;;4.59;100.00;99114.66;5010628;28;20416;-90
2024/03/24 08:31:36;;;;;;;8.55;4.97;;;;;;;4.23;100.00;99085.25;5009387;28;20415;-90
2024/03/24 08:34:04;;;;;;;7.97;5.10;;;;;;;4.35;100.00;99089.47;5018690;28;20778;-91
2024/03/24 08:36:31;;;;;;;8.30;5.03;;;;;;;4.22;100.00;99094.38;5009053;28;20416;-91
2024/03/24 08:39:00;;;;;;;8.55;4.97;;;;;;;4.55;100.00;99092.06;5019977;28;20440;-88
2024/03/24 08:41:27;;;;;;;8.02;5.07;;;;;;;4.31;100.00;99102.72;5010091;28;20430;-90
2024/03/24 08:43:55;;;;;;;8.60;5.00;;;;;;;4.45;100.00;99127.16;5019776;28;20419;-91
2024/03/24 08:46:21;;;;;;;9.88;5.53;;;;;;;4.68;100.00;99119.47;5023813;28;20927;-89
2024/03/24 08:48:49;;;;;;;10.60;5.27;;;;;;;4.43;100.00;99110.44;5023168;28;20855;-89
2024/03/24 08:51:17;;;;;;;9.13;5.30;;;;;;;4.71;100.00;99110.81;5032120;28;20918;-90
2024/03/24 08:53:44;;;;;;;10.07;5.28;;;;;;;4.79;100.00;99087.88;5015869;28;20415;-90
2024/03/24 08:56:15;;;;;;;9.38;5.25;;;;;;;4.81;100.00;99104.59;5013814;28;20426;-89
2024/03/24 08:58:45;;;;;;;8.27;5.20;;;;;;;5.05;100.00;99100.06;5017636;28;20419;-90
2024/03/24 09:01:13;;;;;;;10.35;4.70;;;;;;;4.82;100.00;99077.34;5011692;28;20793;-90
2024/03/24 09:03:40;;;;;;;9.48;5.18;;;;;;;5.02;100.00;99106.03;5029448;28;20436;-89
2024/03/24 09:06:11;;;;;;;8.05;4.75;;;;;;;5.31;100.00;99104.47;5001546;28;20397;-88
2024/03/24 09:08:39;;;;;;;8.90;5.07;;;;;;;5.06;100.00;99093.59;5007907;28;20442;-90
2024/03/24 09:11:06;;;;;;;8.40;4.90;;;;;;;5.41;100.00;99089.00;5007283;28;20427;-91
2024/03/24 09:13:36;;;;;;;8.88;5.10;;;;;;;5.58;100.00;99076.97;5004799;28;20431;-90
2024/03/24 09:16:04;;;;;;;11.80;5.33;;;;;;;5.59;100.00;99111.75;5030799;28;20593;-90
2024/03/24 09:18:33;;;;;;;10.48;5.07;;;;;;;5.37;100.00;99081.72;5012105;28;20438;-91
2024/03/24 09:21:04;;;;;;;9.53;5.40;;;;;;;5.65;100.00;99120.59;5010851;28;20523;-90
2024/03/24 09:23:32;;;;;;;10.85;5.07;;;;;;;5.47;100.00;99099.72;5007407;28;20432;-90
2024/03/24 09:25:59;;;;;;;10.98;5.25;;;;;;;5.42;100.00;99098.66;5009572;28;20433;-91
2024/03/24 09:28:27;;;;;;;8.48;4.97;;;;;;;5.38;100.00;99094.94;5002552;28;20418;-91
2024/03/24 09:30:59;;;;;;;9.52;4.90;;;;;;;5.71;100.00;99095.16;5026478;28;20413;-89
2024/03/24 09:33:27;;;;;;;11.30;5.45;;;;;;;5.67;100.00;99080.63;5007087;28;20604;-91
2024/03/24 09:36:00;;;;;;;12.07;6.18;;;;;;;5.81;100.00;99083.44;5009175;28;20430;-90
2024/03/24 09:38:28;;;;;;;10.85;5.45;;;;;;;5.96;100.00;99101.34;5005807;28;20434;-91
2024/03/24 09:40:55;;;;;;;11.27;5.95;;;;;;;6.20;100.00;99097.84;5010552;28;20430;-90
2024/03/24 09:43:23;;;;;;;10.77;5.80;;;;;;;5.87;100.00;99076.06;5024052;28;20423;-90
2024/03/24 09:45:50;;;;;;;12.02;6.28;;;;;;;6.08;100.00;99093.69;5005596;28;20434;-90
2024/03/24 09:48:20;;;;;;;10.45;5.88;;;;;;;6.25;100.00;99082.38;5021028;28;20415;-92
2024/03/24 09:50:47;;;;;;;12.13;5.82;;;;;;;6.43;100.00;99088.09;5006329;28;20813;-90
2024/03/24 09:53:19;;;;;;;12.07;6.00;;;;;;;6.39;100.00;99101.38;5029211;23;20961;-85
2024/03/24 09:55:46;;;;;;;9.55;5.25;;;;;;;6.29;100.00;99094.22;4988256;28;20441;-84
2024/03/24 09:58:14;;;;;;;10.77;5.60;;;;;;;6.09;100.00;99100.69;4987794;28;20428;-87
2024/03/24 10:00:41;;;;;;;9.50;5.65;;;;;;;6.07;100.00;99093.97;4984381;28;20429;-89
2024/03/24 10:03:09;;;;;;;10.07;5.00;;;;;;;6.25;100.00;99093.19;4992257;28;20517;-87
2024/03/24 10:05:38;;;;;;;10.18;5.13;;;;;;;6.31;100.00;99093.94;4993063;28;20773;-87
2024/03/24 10:08:06;;;;;;;11.77;5.30;;;;;;;6.20;100.00;99089.75;4992260;28;20433;-88
2024/03/24 10:10:32;;;;;;;10.52;4.70;;;;;;;6.04;100.00;99100.75;4990914;28;20426;-87
2024/03/24 10:13:03;;;;;;;9.63;4.93;;;;;;;5.92;100.00;99087.66;4973570;28;20795;-87
2024/03/24 10:15:30;;;;;;;10.35;5.18;;;;;;;5.90;100.00;99091.72;4988612;28;20428;-86
2024/03/24 10:18:06;;;;;;;9.25;4.50;;;;;;;5.85;100.00;99089.88;4977227;28;20436;-86
2024/03/24 10:20:33;;;;;;;9.70;4.68;;;;;;;5.94;100.00;99088.16;4966084;28;20438;-87
2024/03/24 10:23:03;;;;;;;9.57;4.63;;;;;;;5.74;100.00;99085.69;4990418;28;20431;-87
2024/03/24 10:25:31;;;;;;;8.77;4.75;;;;;;;5.96;100.00;99085.16;4985296;28;20418;-85
2024/03/24 10:28:00;;;;;;;9.63;4.53;;;;;;;5.98;100.00;99085.72;4989930;28;20434;-86
2024/03/24 10:30:27;;;;;;;9.00;4.38;;;;;;;6.24;100.00;99075.41;4990759;28;20424;-83
2024/03/24 10:32:54;;;;;;;8.30;4.32;;;;;;;6.34;100.00;99082.56;4973814;28;20431;-87
2024/03/24 10:35:21;;;;;;;8.65;3.80;;;;;;;6.34;100.00;99079.84;4975529;28;20431;-86
2024/03/24 10:37:48;;;;;;;7.90;4.13;;;;;;;6.19;100.00;99077.38;4972571;28;20444;-87
2024/03/24 10:40:17;;;;;;;8.10;4.18;;;;;;;6.27;100.00;99069.41;4988617;28;20424;-88
2024/03/24 10:42:52;;;;;;;8.38;4.00;;;;;;;6.11;100.00;99079.59;4989697;28;20434;-86
2024/03/24 10:45:24;;;;;;;9.45;4.47;;;;;;;6.03;100.00;99072.13;4988511;28;20930;-87
2024/03/24 10:48:00;;;;;;;8.67;4.13;;;;;;;6.22;100.00;99068.66;4993726;28;20436;-88
2024/03/24 10:50:27;;;;;;;8.77;4.20;;;;;;;6.33;100.00;99066.66;4990741;28;20428;-87
2024/03/24 10:52:59;;;;;;;8.90;4.35;;;;;;;6.23;100.00;99073.00;4987962;28;20439;-87
2024/03/24 10:55:28;;;;;;;8.88;4.05;;;;;;;6.15;100.00;99069.03;4989853;28;20438;-87
2024/03/24 10:57:56;;;;;;;8.45;4.15;;;;;;;6.22;100.00;99071.38;4990334;28;20738;-87
2024/03/24 11:00:28;;;;;;;7.38;3.95;;;;;;;6.08;100.00;99076.69;4975834;28;20437;-88
2024/03/24 11:02:56;;;;;;;8.13;4.60;;;;;;;5.88;100.00;99059.63;4981213;28;20437;-87
2024/03/24 11:05:24;;;;;;;8.02;4.45;;;;;;;5.81;100.00;99069.13;4978312;28;20799;-87
2024/03/24 11:07:52;;;;;;;8.90;4.53;;;;;;;5.81;100.00;99078.03;4981335;28;20422;-85
2024/03/24 11:10:19;;;;;;;8.27;4.75;;;;;;;6.03;100.00;99072.13;4994677;28;20424;-88
2024/03/24 11:12:48;;;;;;;10.15;5.00;;;;;;;6.18;100.00;99070.34;4994408;28;20412;-87
2024/03/24 11:15:17;;;;;;;12.65;5.57;;;;;;;6.36;100.00;99064.16;4978424;28;20437;-89
2024/03/24 11:17:47;;;;;;;9.32;5.03;;;;;;;6.59;100.00;99062.47;4979359;28;20413;-87
2024/03/24 11:20:16;;;;;;;10.63;5.05;;;;;;;6.47;100.00;99065.59;4991921;28;20423;-88
2024/03/24 11:22:44;;;;;;;7.60;3.93;;;;;;;6.51;100.00;99068.53;4988336;28;20434;-86
2024/03/24 11:25:12;;;;;;;8.43;4.18;;;;;;;6.47;100.00;99056.69;4973211;28;20803;-87
2024/03/24 11:27:41;;;;;;;9.65;4.45;;;;;;;6.31;100.00;99050.69;4992223;28;20420;-87
2024/03/24 11:30:13;;;;;;;8.00;4.20;;;;;;;6.26;100.00;99045.38;4984598;28;20423;-89